createdAt,value
2024-02-01T00:00:36.567Z,9.60
2024-02-01T00:03:04.137Z,10.40
2024-02-01T00:05:31.083Z,10.00
2024-02-01T00:07:58.337Z,10.30
2024-02-01T00:10:25.062Z,9.70
2024-02-01T00:12:51.779Z,9.60
2024-02-01T00:15:18.575Z,10.20
2024-02-01T00:17:45.859Z,11.10
2024-02-01T00:20:13.821Z,11.40
2024-02-01T00:22:40.559Z,11.60
2024-02-01T00:25:07.642Z,10.60
2024-02-01T00:27:34.353Z,10.80
2024-02-01T00:30:02.353Z,11.40
2024-02-01T00:32:32.290Z,10.60
2024-02-01T00:34:59.189Z,12.80
2024-02-01T00:37:26.181Z,11.70
2024-02-01T00:39:54.839Z,11.20
2024-02-01T00:44:52.769Z,12.10
2024-02-01T00:47:22.305Z,12.20
2024-02-01T00:49:51.838Z,11.60
2024-02-01T00:52:21.833Z,12.90
2024-02-01T00:54:50.699Z,12.60
2024-02-01T00:57:20.863Z,12.30
2024-02-01T00:59:49.917Z,12.00
2024-02-01T01:02:18.707Z,11.60
2024-02-01T01:04:47.380Z,11.90
2024-02-01T01:07:16.384Z,11.80
2024-02-01T01:09:45.830Z,11.90
2024-02-01T01:12:14.890Z,12.60
2024-02-01T01:14:44.498Z,13.20
2024-02-01T01:17:13.850Z,12.60
2024-02-01T01:19:42.811Z,12.70
2024-02-01T01:22:12.483Z,13.30
2024-02-01T01:24:40.868Z,13.40
2024-02-01T01:27:10.192Z,13.50
2024-02-01T01:29:39.533Z,13.70
2024-02-01T01:32:08.719Z,14.70
2024-02-01T01:34:38.267Z,12.80
2024-02-01T01:37:06.781Z,13.50
2024-02-01T01:46:34.911Z,14.60
2024-02-01T01:49:01.738Z,14.60
2024-02-01T01:51:28.526Z,14.40
2024-02-01T01:53:57.458Z,14.40
2024-02-01T01:56:24.659Z,15.50
2024-02-01T01:58:52.516Z,14.90
2024-02-01T02:01:19.933Z,15.30
2024-02-01T02:03:49.113Z,16.50
2024-02-01T02:06:16.086Z,16.10
2024-02-01T02:08:42.832Z,16.80
2024-02-01T02:11:09.541Z,16.90
2024-02-01T02:13:36.591Z,17.40
2024-02-01T02:16:03.542Z,18.10
2024-02-01T02:18:30.254Z,17.90
2024-02-01T02:20:57.914Z,17.90
2024-02-01T02:23:24.685Z,19.30
2024-02-01T02:25:51.306Z,17.10
2024-02-01T02:28:17.962Z,18.00
2024-02-01T02:30:44.791Z,18.00
2024-02-01T02:33:11.645Z,16.80
2024-02-01T02:35:38.488Z,17.20
2024-02-01T02:38:05.498Z,17.10
2024-02-01T02:40:32.182Z,17.20
2024-02-01T02:42:58.807Z,16.20
2024-02-01T02:45:25.495Z,17.70
2024-02-01T02:47:52.337Z,17.80
2024-02-01T02:50:19.166Z,15.80
2024-02-01T02:52:47.811Z,15.90
2024-02-01T02:55:14.513Z,15.00
2024-02-01T02:57:41.152Z,15.80
2024-02-01T03:00:11.470Z,15.30
2024-02-01T03:02:39.149Z,15.60
2024-02-01T03:05:07.650Z,14.30
2024-02-01T03:07:34.688Z,13.30
2024-02-01T03:10:05.805Z,13.40
2024-02-01T03:12:32.739Z,14.00
2024-02-01T03:15:00.262Z,12.80
2024-02-01T03:17:35.497Z,14.60
2024-02-01T03:20:02.354Z,14.10
2024-02-01T03:22:28.981Z,14.30
2024-02-01T03:25:01.946Z,13.40
2024-02-01T03:27:29.223Z,14.60
2024-02-01T03:30:00.863Z,13.00
2024-02-01T03:32:31.832Z,13.40
2024-02-01T03:34:59.120Z,13.60
2024-02-01T03:37:28.811Z,15.50
2024-02-01T03:39:55.633Z,14.60
2024-02-01T03:42:23.646Z,13.50
2024-02-01T03:44:50.460Z,14.60
2024-02-01T03:47:19.940Z,15.30
2024-02-01T03:49:46.603Z,14.90
2024-02-01T03:52:13.288Z,14.40
2024-02-01T03:54:40.731Z,14.90
2024-02-01T03:57:08.191Z,15.30
2024-02-01T03:59:35.459Z,15.70
2024-02-01T04:02:05.823Z,16.50
2024-02-01T04:04:33.440Z,16.60
2024-02-01T04:07:00.813Z,16.30
2024-02-01T04:09:27.945Z,16.90
2024-02-01T04:11:54.626Z,16.70
2024-02-01T04:14:21.502Z,17.40
2024-02-01T04:16:48.758Z,17.70
2024-02-01T04:19:16.205Z,17.80
2024-02-01T04:21:49.335Z,17.10
2024-02-01T04:24:18.825Z,15.80
2024-02-01T04:26:52.259Z,15.60
2024-02-01T04:29:19.781Z,16.80
2024-02-01T04:31:46.485Z,17.40
2024-02-01T04:34:15.111Z,16.30
2024-02-01T04:36:42.631Z,16.60
2024-02-01T04:39:09.632Z,15.40
2024-02-01T04:41:39.809Z,16.50
2024-02-01T04:44:08.783Z,16.20
2024-02-01T04:46:35.801Z,14.40
2024-02-01T04:49:04.121Z,13.80
2024-02-01T04:51:31.864Z,15.60
2024-02-01T04:53:58.765Z,16.40
2024-02-01T04:56:25.398Z,15.60
2024-02-01T04:58:52.062Z,16.50
2024-02-01T05:01:18.834Z,17.00
2024-02-01T05:03:45.856Z,17.30
2024-02-01T05:06:12.700Z,17.60
2024-02-01T05:08:39.530Z,17.60
2024-02-01T05:11:06.262Z,18.50
2024-02-01T05:13:33.095Z,20.80
2024-02-01T05:16:01.215Z,21.80
2024-02-01T05:18:28.520Z,21.00
2024-02-01T05:20:56.051Z,24.00
2024-02-01T05:23:23.075Z,22.00
2024-02-01T05:25:49.662Z,24.00
2024-02-01T05:28:16.289Z,26.70
2024-02-01T05:30:44.002Z,28.60
2024-02-01T05:33:11.269Z,27.20
2024-02-01T05:35:38.319Z,28.30
2024-02-01T05:38:07.284Z,28.70
2024-02-01T05:40:34.359Z,29.80
2024-02-01T05:43:02.498Z,32.90
2024-02-01T05:45:30.658Z,32.90
2024-02-01T05:48:00.012Z,32.50
2024-02-01T05:50:27.353Z,34.90
2024-02-01T05:52:54.003Z,34.00
2024-02-01T05:55:21.014Z,35.70
2024-02-01T05:57:48.353Z,35.80
2024-02-01T06:00:20.968Z,38.90
2024-02-01T06:02:48.427Z,38.30
2024-02-01T06:05:15.229Z,39.00
2024-02-01T06:07:43.240Z,37.90
2024-02-01T06:10:10.132Z,36.20
2024-02-01T06:12:39.179Z,39.50
2024-02-01T06:15:08.432Z,39.80
2024-02-01T06:17:35.945Z,37.40
2024-02-01T06:20:03.265Z,39.60
2024-02-01T06:22:30.187Z,39.30
2024-02-01T06:24:56.983Z,38.40
2024-02-01T06:27:23.705Z,39.80
2024-02-01T06:29:50.509Z,39.50
2024-02-01T06:32:23.380Z,39.80
2024-02-01T06:35:06.644Z,40.10
2024-02-01T06:37:36.891Z,40.60
2024-02-01T06:40:33.227Z,38.80
2024-02-01T06:43:22.861Z,37.80
2024-02-01T06:45:59.526Z,37.50
2024-02-01T06:48:42.646Z,39.10
2024-02-01T06:51:23.768Z,39.90
2024-02-01T06:53:58.839Z,37.70
2024-02-01T06:56:49.919Z,38.00
2024-02-01T06:59:46.630Z,38.70
2024-02-01T07:02:25.775Z,35.10
2024-02-01T07:04:54.755Z,39.10
2024-02-01T07:07:29.139Z,38.20
2024-02-01T07:10:00.381Z,40.70
2024-02-01T07:12:45.213Z,39.40
2024-02-01T07:15:25.652Z,43.50
2024-02-01T07:18:08.750Z,42.70
2024-02-01T07:20:37.820Z,35.50
2024-02-01T07:23:25.655Z,34.30
2024-02-01T07:26:14.212Z,36.90
2024-02-01T07:28:59.697Z,33.70
2024-02-01T07:31:45.152Z,33.40
2024-02-01T07:34:31.016Z,34.20
2024-02-01T07:37:16.267Z,47.20
2024-02-01T07:40:01.395Z,40.20
2024-02-01T07:42:47.690Z,53.40
2024-02-01T07:45:33.225Z,41.30
2024-02-01T07:48:18.844Z,41.30
2024-02-01T07:51:04.177Z,35.60
2024-02-01T07:53:49.756Z,31.90
2024-02-01T07:56:35.174Z,31.40
2024-02-01T07:59:09.484Z,31.20
2024-02-01T08:01:49.627Z,35.30
2024-02-01T08:04:18.910Z,32.10
2024-02-01T08:07:05.207Z,32.20
2024-02-01T08:09:32.447Z,30.50
2024-02-01T08:11:59.145Z,29.00
2024-02-01T08:14:25.929Z,30.30
2024-02-01T08:16:52.629Z,31.20
2024-02-01T08:19:33.949Z,29.80
2024-02-01T08:22:06.773Z,30.60
2024-02-01T08:24:33.533Z,29.70
2024-02-01T08:27:00.331Z,30.00
2024-02-01T08:29:37.409Z,30.80
2024-02-01T08:32:05.072Z,28.00
2024-02-01T08:34:31.960Z,26.90
2024-02-01T08:36:59.754Z,27.90
2024-02-01T08:39:26.744Z,29.10
2024-02-01T08:41:53.517Z,26.90
2024-02-01T08:44:20.722Z,26.70
2024-02-01T08:46:47.449Z,26.90
2024-02-01T08:49:17.847Z,25.60
2024-02-01T08:51:45.130Z,28.60
2024-02-01T08:54:12.509Z,26.00
2024-02-01T08:56:40.252Z,25.80
2024-02-01T08:59:07.116Z,26.40
2024-02-01T09:01:35.311Z,27.10
2024-02-01T09:04:14.049Z,25.50
2024-02-01T09:06:40.916Z,24.80
2024-02-01T09:09:27.908Z,25.00
2024-02-01T09:11:54.635Z,24.10
2024-02-01T09:14:21.416Z,24.00
2024-02-01T09:16:48.023Z,23.80
2024-02-01T09:19:16.130Z,22.70
2024-02-01T09:21:42.925Z,24.40
2024-02-01T09:24:09.706Z,23.20
2024-02-01T09:26:36.471Z,21.90
2024-02-01T09:29:12.741Z,22.50
2024-02-01T09:31:40.798Z,23.40
2024-02-01T09:34:10.572Z,22.60
2024-02-01T09:39:04.950Z,22.40
2024-02-01T09:41:32.327Z,20.60
2024-02-01T09:44:00.587Z,20.70
2024-02-01T09:46:29.653Z,19.70
2024-02-01T09:48:57.888Z,18.70
2024-02-01T09:51:25.166Z,19.50
2024-02-01T09:53:52.844Z,18.20
2024-02-01T09:56:27.136Z,16.90
2024-02-01T09:58:57.117Z,17.30
2024-02-01T10:03:54.034Z,17.30
2024-02-01T10:06:21.113Z,16.90
2024-02-01T10:08:55.158Z,16.40
2024-02-01T10:11:22.275Z,16.00
2024-02-01T10:13:49.163Z,16.00
2024-02-01T10:16:18.000Z,14.90
2024-02-01T10:18:55.137Z,14.40
2024-02-01T10:21:32.640Z,13.90
2024-02-01T10:24:08.640Z,14.10
2024-02-01T10:26:37.727Z,14.50
2024-02-01T10:29:04.693Z,13.10
2024-02-01T10:31:32.932Z,13.60
2024-02-01T10:34:11.931Z,14.60
2024-02-01T10:36:46.337Z,13.10
2024-02-01T10:39:19.393Z,13.70
2024-02-01T10:41:53.887Z,14.30
2024-02-01T10:44:23.049Z,13.70
2024-02-01T10:46:56.885Z,13.30
2024-02-01T10:49:27.057Z,13.50
2024-02-01T10:51:56.950Z,12.90
2024-02-01T10:56:51.715Z,13.80
2024-02-01T10:59:20.164Z,12.60
2024-02-01T11:01:47.760Z,11.90
2024-02-01T11:04:15.982Z,11.90
2024-02-01T11:06:49.215Z,12.00
2024-02-01T11:09:21.552Z,10.00
2024-02-01T11:11:56.068Z,11.20
2024-02-01T11:14:25.207Z,10.00
2024-02-01T11:16:54.466Z,11.50
2024-02-01T11:19:24.498Z,10.90
2024-02-01T11:21:55.751Z,11.10
2024-02-01T11:24:28.046Z,12.20
2024-02-01T11:26:56.826Z,10.90
2024-02-01T11:29:29.060Z,9.80
2024-02-01T11:31:57.721Z,10.20
2024-02-01T11:34:28.857Z,9.70
2024-02-01T11:36:56.118Z,9.50
2024-02-01T11:39:23.830Z,10.60
2024-02-01T11:41:52.996Z,10.70
2024-02-01T11:44:30.294Z,10.10
2024-02-01T11:46:58.697Z,10.60
2024-02-01T11:49:30.219Z,11.10
2024-02-01T11:52:14.869Z,10.10
2024-02-01T11:54:49.037Z,10.00
2024-02-01T11:57:20.136Z,10.40
2024-02-01T11:59:50.514Z,10.90
2024-02-01T12:02:21.113Z,10.50
2024-02-01T12:04:48.120Z,9.70
2024-02-01T12:07:21.289Z,10.20
2024-02-01T12:09:49.717Z,10.50
2024-02-01T12:12:26.841Z,10.50
2024-02-01T12:14:55.695Z,10.70
2024-02-01T12:17:27.616Z,9.90
2024-02-01T12:19:58.494Z,10.40
2024-02-01T12:22:30.698Z,10.60
2024-02-01T12:24:59.101Z,9.50
2024-02-01T12:27:26.131Z,10.30
2024-02-01T12:29:53.485Z,9.10
2024-02-01T12:32:20.368Z,9.20
2024-02-01T12:34:47.347Z,8.80
2024-02-01T12:37:16.078Z,9.70
2024-02-01T12:39:43.555Z,8.70
2024-02-01T12:42:16.349Z,7.90
2024-02-01T12:44:45.780Z,8.50
2024-02-01T12:47:12.542Z,7.80
2024-02-01T12:49:40.328Z,8.00
2024-02-01T12:52:07.359Z,6.90
2024-02-01T12:54:39.693Z,7.70
2024-02-01T12:59:38.519Z,6.80
2024-02-01T13:02:06.135Z,7.70
2024-02-01T13:04:32.858Z,7.10
2024-02-01T13:06:59.783Z,7.30
2024-02-01T13:09:30.075Z,6.60
2024-02-01T13:11:59.869Z,6.80
2024-02-01T13:14:33.092Z,7.10
2024-02-01T13:17:11.178Z,7.30
2024-02-01T13:19:41.720Z,7.10
2024-02-01T13:22:08.928Z,6.60
2024-02-01T13:24:35.850Z,6.30
2024-02-01T13:27:03.105Z,6.80
2024-02-01T13:29:29.936Z,7.00
2024-02-01T13:31:56.793Z,6.50
2024-02-01T13:34:23.840Z,5.60
2024-02-01T13:36:50.729Z,6.90
2024-02-01T13:39:17.904Z,7.30
2024-02-01T13:41:48.064Z,7.20
2024-02-01T13:44:14.918Z,7.20
2024-02-01T13:46:41.587Z,6.30
2024-02-01T13:49:08.810Z,7.00
2024-02-01T13:51:40.875Z,7.00
2024-02-01T13:54:07.900Z,6.90
2024-02-01T13:56:34.943Z,6.50
2024-02-01T13:59:01.605Z,6.00
2024-02-01T14:01:28.421Z,6.10
2024-02-01T14:03:55.209Z,6.40
2024-02-01T14:06:22.106Z,6.20
2024-02-01T14:08:48.887Z,6.60
2024-02-01T14:11:16.368Z,5.80
2024-02-01T14:13:43.529Z,5.30
2024-02-01T14:16:10.742Z,6.50
2024-02-01T14:18:37.990Z,6.70
2024-02-01T14:21:07.916Z,6.90
2024-02-01T14:23:34.621Z,6.00
2024-02-01T14:26:01.303Z,5.70
2024-02-01T14:28:29.077Z,6.30
2024-02-01T14:30:56.009Z,7.00
2024-02-01T14:33:22.920Z,6.30
2024-02-01T14:35:51.588Z,6.60
2024-02-01T14:38:18.385Z,6.50
2024-02-01T14:40:45.279Z,6.60
2024-02-01T14:43:11.848Z,7.30
2024-02-01T14:45:38.527Z,6.60
2024-02-01T14:48:06.020Z,6.20
2024-02-01T14:50:32.738Z,6.60
2024-02-01T14:52:59.325Z,6.30
2024-02-01T14:55:26.045Z,6.50
2024-02-01T14:57:52.630Z,5.90
2024-02-01T15:00:27.357Z,7.30
2024-02-01T15:02:54.963Z,6.00
2024-02-01T15:05:22.073Z,6.50
2024-02-01T15:07:49.035Z,6.40
2024-02-01T15:10:16.462Z,6.60
2024-02-01T15:12:46.123Z,5.70
2024-02-01T15:15:13.705Z,5.90
2024-02-01T15:17:43.765Z,4.90
2024-02-01T15:20:11.068Z,5.30
2024-02-01T15:22:37.978Z,4.70
2024-02-01T15:25:05.200Z,5.20
2024-02-01T15:27:32.666Z,5.00
2024-02-01T15:30:10.373Z,5.30
2024-02-01T15:32:39.888Z,4.90
2024-02-01T15:35:06.941Z,4.80
2024-02-01T15:37:33.592Z,4.50
2024-02-01T15:40:00.966Z,4.90
2024-02-01T15:42:28.973Z,5.30
2024-02-01T15:44:55.847Z,5.40
2024-02-01T15:47:30.343Z,5.00
2024-02-01T15:50:02.406Z,5.40
2024-02-01T15:52:29.243Z,5.80
2024-02-01T15:54:55.928Z,4.80
2024-02-01T15:57:22.622Z,4.40
2024-02-01T15:59:49.421Z,4.40
2024-02-01T16:02:16.192Z,5.40
2024-02-01T16:04:42.829Z,5.20
2024-02-01T16:07:09.876Z,4.90
2024-02-01T16:09:40.194Z,4.90
2024-02-01T16:12:07.176Z,5.20
2024-02-01T16:14:34.383Z,4.60
2024-02-01T16:17:03.105Z,5.30
2024-02-01T16:19:35.937Z,4.20
2024-02-01T16:22:05.784Z,3.80
2024-02-01T16:24:35.554Z,4.60
2024-02-01T16:27:10.098Z,4.40
2024-02-01T16:29:44.235Z,6.00
2024-02-01T16:32:40.470Z,7.30
2024-02-01T16:35:45.603Z,7.00
2024-02-01T16:38:19.681Z,6.20
2024-02-01T16:40:46.795Z,6.60
2024-02-01T16:43:27.679Z,6.60
2024-02-01T16:45:54.497Z,6.30
2024-02-01T16:48:21.263Z,6.00
2024-02-01T16:50:48.718Z,6.00
2024-02-01T16:53:24.568Z,6.50
2024-02-01T16:55:57.162Z,6.50
2024-02-01T16:58:43.470Z,6.50
2024-02-01T17:01:38.349Z,6.40
2024-02-01T17:04:09.250Z,5.60
2024-02-01T17:06:36.919Z,6.00
2024-02-01T17:09:06.188Z,5.70
2024-02-01T17:11:37.740Z,5.00
2024-02-01T17:14:09.103Z,4.70
2024-02-01T17:16:54.103Z,5.60
2024-02-01T17:19:21.799Z,5.20
2024-02-01T17:21:49.459Z,5.20
2024-02-01T17:24:24.948Z,4.60
2024-02-01T17:26:54.748Z,5.00
2024-02-01T17:31:53.568Z,5.50
2024-02-01T17:34:26.255Z,5.80
2024-02-01T17:36:55.633Z,6.40
2024-02-01T17:39:48.918Z,5.50
2024-02-01T17:42:32.232Z,5.60
2024-02-01T17:45:25.379Z,6.70
2024-02-01T17:48:02.919Z,5.40
2024-02-01T17:50:36.185Z,5.10
2024-02-01T17:53:10.254Z,6.00
2024-02-01T17:55:47.022Z,5.90
2024-02-01T17:58:41.825Z,9.00
2024-02-01T18:01:23.113Z,5.40
2024-02-01T18:03:57.194Z,5.90
2024-02-01T18:06:45.490Z,5.70
2024-02-01T18:09:36.495Z,5.50
2024-02-01T18:12:06.534Z,5.30
2024-02-01T18:14:33.383Z,5.20
2024-02-01T18:17:05.151Z,6.80
2024-02-01T18:19:33.029Z,4.20
2024-02-01T18:22:00.420Z,4.60
2024-02-01T18:24:37.404Z,4.50
2024-02-01T18:27:10.719Z,5.50
2024-02-01T18:29:51.720Z,4.60
2024-02-01T18:32:20.104Z,5.00
2024-02-01T18:34:48.084Z,5.20
2024-02-01T18:37:21.466Z,5.30
2024-02-01T18:39:48.832Z,5.20
2024-02-01T18:42:41.488Z,5.30
2024-02-01T18:45:33.240Z,4.90
2024-02-01T18:48:00.343Z,5.30
2024-02-01T18:50:37.225Z,4.70
2024-02-01T18:53:05.624Z,4.60
2024-02-01T18:55:42.763Z,4.60
2024-02-01T18:58:32.468Z,4.80
2024-02-01T19:01:02.400Z,4.40
2024-02-01T19:04:00.750Z,5.00
2024-02-01T19:06:34.287Z,5.30
2024-02-01T19:09:22.576Z,5.70
2024-02-01T19:12:01.906Z,4.70
2024-02-01T19:14:35.856Z,5.70
2024-02-01T19:17:08.686Z,4.70
2024-02-01T19:19:36.150Z,4.10
2024-02-01T19:22:06.541Z,4.10
2024-02-01T19:24:33.257Z,4.80
2024-02-01T19:27:03.386Z,5.50
2024-02-01T19:29:31.256Z,4.70
2024-02-01T19:32:00.237Z,5.10
2024-02-01T19:34:28.705Z,5.30
2024-02-01T19:36:55.633Z,4.20
2024-02-01T19:39:27.507Z,4.70
2024-02-01T19:41:54.318Z,5.40
2024-02-01T19:44:21.359Z,4.80
2024-02-01T19:46:48.069Z,5.20
2024-02-01T19:49:14.909Z,4.10
2024-02-01T19:51:42.223Z,5.60
2024-02-01T19:54:09.770Z,4.90
2024-02-01T19:56:36.658Z,5.30
2024-02-01T19:59:03.581Z,4.40
2024-02-01T20:01:34.633Z,4.60
2024-02-01T20:04:04.261Z,4.60
2024-02-01T20:06:33.691Z,3.90
2024-02-01T20:09:02.815Z,4.10
2024-02-01T20:11:30.837Z,4.40
2024-02-01T20:14:00.846Z,4.30
2024-02-01T20:16:28.454Z,4.30
2024-02-01T20:18:56.250Z,4.90
2024-02-01T20:21:23.440Z,4.50
2024-02-01T20:23:50.730Z,4.10
2024-02-01T20:26:17.864Z,4.40
2024-02-01T20:28:54.867Z,4.90
2024-02-01T20:31:25.949Z,4.30
2024-02-01T20:33:54.770Z,3.90
2024-02-01T20:36:55.564Z,4.60
2024-02-01T20:39:29.068Z,4.40
2024-02-01T20:41:59.256Z,4.20
2024-02-01T20:44:33.959Z,5.20
2024-02-01T20:47:08.654Z,4.90
2024-02-01T20:49:35.725Z,4.40
2024-02-01T20:52:05.684Z,5.90
2024-02-01T20:57:13.886Z,4.50
2024-02-01T20:59:48.927Z,5.20
2024-02-01T21:02:46.798Z,4.50
2024-02-01T21:05:13.569Z,4.80
2024-02-01T21:07:40.674Z,5.00
2024-02-01T21:10:16.461Z,3.80
2024-02-01T21:13:02.176Z,4.30
2024-02-01T21:15:31.509Z,3.90
2024-02-01T21:18:00.075Z,4.10
2024-02-01T21:20:38.491Z,4.80
2024-02-01T21:23:15.874Z,4.00
2024-02-01T21:26:14.646Z,5.00
2024-02-01T21:28:43.187Z,4.20
2024-02-01T21:31:56.324Z,4.90
2024-02-01T21:34:26.736Z,4.20
2024-02-01T21:36:59.190Z,4.50
2024-02-01T21:39:52.595Z,4.90
2024-02-01T21:42:28.761Z,5.10
2024-02-01T21:44:58.900Z,5.90
2024-02-01T21:49:52.410Z,4.40
2024-02-01T21:52:19.792Z,4.00
2024-02-01T21:54:46.892Z,5.70
2024-02-01T21:57:13.605Z,5.90
2024-02-01T21:59:40.926Z,6.80
2024-02-01T22:02:08.273Z,4.80
2024-02-01T22:04:36.165Z,5.80
2024-02-01T22:07:03.975Z,4.70
2024-02-01T22:09:31.243Z,5.50
2024-02-01T22:11:58.426Z,5.80
2024-02-01T22:14:25.066Z,5.70
2024-02-01T22:16:51.921Z,6.00
2024-02-01T22:19:18.526Z,6.80
2024-02-01T22:21:45.315Z,5.50
2024-02-01T22:24:12.013Z,5.50
2024-02-01T22:26:38.801Z,5.80
2024-02-01T22:29:05.441Z,4.90
2024-02-01T22:31:32.541Z,5.60
2024-02-01T22:33:59.448Z,4.80
2024-02-01T22:36:26.366Z,5.10
2024-02-01T22:38:53.104Z,5.00
2024-02-01T22:41:20.433Z,4.40
2024-02-01T22:43:47.091Z,5.10
2024-02-01T22:46:13.740Z,5.10
2024-02-01T22:48:41.079Z,4.80
2024-02-01T22:51:08.076Z,4.30
2024-02-01T22:53:34.804Z,6.00
2024-02-01T22:56:01.510Z,5.60
2024-02-01T22:58:28.612Z,5.10
2024-02-01T23:00:55.371Z,6.60
2024-02-01T23:03:22.202Z,6.10
2024-02-01T23:05:49.043Z,7.20
2024-02-01T23:08:15.971Z,6.70
2024-02-01T23:10:42.600Z,5.70
2024-02-01T23:13:09.240Z,5.50
2024-02-01T23:15:35.895Z,6.40
2024-02-01T23:18:03.937Z,6.90
2024-02-01T23:20:31.179Z,6.80
2024-02-01T23:22:58.226Z,6.80
2024-02-01T23:25:24.917Z,5.00
2024-02-01T23:27:51.607Z,5.30
2024-02-01T23:30:18.350Z,5.20
2024-02-01T23:32:45.216Z,4.70
2024-02-01T23:35:11.984Z,5.50
2024-02-01T23:37:38.612Z,4.70
2024-02-01T23:40:05.873Z,5.40
2024-02-01T23:42:32.704Z,4.70
2024-02-01T23:44:59.577Z,4.30
2024-02-01T23:47:26.461Z,4.90
2024-02-01T23:49:53.354Z,4.70
2024-02-01T23:52:20.108Z,5.30
2024-02-01T23:54:47.008Z,4.70
2024-02-01T23:57:14.087Z,3.90
2024-02-01T23:59:40.710Z,5.40
